Terminal Aerodrome Forecast
Issued by NWS

Home | Current Version | Previous Version | Text Only | Print | Product List | Glossary On
Versions: 1 2 3 4 5 6 7 8 9 10 11 12 13 14
000
FTUS44 KEPZ 271100
TAFDMN
TAF
KDMN 271125Z 2712/2812 25009KT P6SM SCT060 BKN100
     FM280000 06013G20KT P6SM SCT060 BKN100
     FM280300 06015G25KT P6SM SCT060 BKN100=

USA.gov is the U.S. government's official web portal to all federal, state and local government web resources and services.